Time;durP1;ratioP1;P1;durP2;ratioP2;P2;SDS_P1;SDS_P2;PMS_P1;PMS_P2;Temp;Humidity;BMP_temperature;BMP_pressure;BME280_temperature;BME280_humidity;BME280_pressure;Samples;Min_cycle;Max_cycle;Signal;HPM_P1;HPM_P2
2022/05/20 00:00:54;;;;;;;6.43;2.35;;;;;;;19.33;31.91;101223.75;5375441;32;34567;-78
2022/05/20 00:03:58;;;;;;;4.65;2.58;;;;;;;18.69;33.76;101232.16;5392164;32;35421;-67
2022/05/20 00:07:00;;;;;;;8.55;2.80;;;;;;;19.00;33.10;101231.16;5371826;32;35531;-74
2022/05/20 00:10:02;;;;;;;7.77;2.67;;;;;;;19.14;33.09;101226.72;5378700;32;34191;-80
2022/05/20 00:13:05;;;;;;;7.28;2.78;;;;;;;18.74;33.09;101217.63;5362701;32;34552;-78
2022/05/20 00:16:07;;;;;;;8.98;3.00;;;;;;;18.73;33.37;101234.53;5375461;32;35516;-75
2022/05/20 00:19:09;;;;;;;7.87;2.62;;;;;;;18.28;34.10;101233.59;5392998;32;35509;-67
2022/05/20 00:22:15;;;;;;;7.60;2.70;;;;;;;18.49;34.26;101228.84;5368451;32;45900;-67
2022/05/20 00:28:43;;;;;;;6.40;2.65;;;;;;;18.62;34.21;101227.16;5381825;32;43061;-79
2022/05/20 00:31:45;;;;;;;6.87;2.90;;;;;;;18.70;34.24;101231.22;5379383;32;35230;-78
2022/05/20 00:34:47;;;;;;;8.70;2.75;;;;;;;17.85;35.87;101227.22;5383034;32;34834;-66
2022/05/20 00:37:49;;;;;;;6.63;2.50;;;;;;;18.38;35.07;101226.78;5380655;32;34131;-67
2022/05/20 00:40:54;;;;;;;6.78;2.78;;;;;;;19.01;33.55;101216.91;5395649;32;34601;-69
2022/05/20 00:43:58;;;;;;;7.00;2.97;;;;;;;18.78;34.53;101228.94;5379262;32;34999;-67
2022/05/20 00:47:00;;;;;;;8.38;2.87;;;;;;;17.29;38.12;101225.84;5383906;32;34609;-66
2022/05/20 00:50:08;;;;;;;9.93;2.90;;;;;;;16.90;40.07;101231.47;5392875;32;35222;-66
2022/05/20 00:53:12;;;;;;;10.60;3.20;;;;;;;16.62;42.58;101245.25;5377243;32;34324;-67
2022/05/20 00:56:17;;;;;;;8.35;3.30;;;;;;;16.37;43.85;101240.31;5394123;32;46597;-66
2022/05/20 00:59:21;;;;;;;11.32;3.22;;;;;;;16.12;44.90;101245.97;5377340;32;35243;-67
2022/05/20 01:02:25;;;;;;;8.60;3.62;;;;;;;15.88;45.45;101243.56;5382315;32;34289;-67
2022/05/20 01:05:31;;;;;;;8.52;3.33;;;;;;;16.48;43.90;101244.13;5375004;32;37044;-74
2022/05/20 01:08:33;;;;;;;9.38;3.47;;;;;;;16.10;44.45;101243.41;5379101;32;35199;-66
2022/05/20 01:11:36;;;;;;;11.25;3.72;;;;;;;16.14;44.18;101246.75;5386161;32;35222;-79
2022/05/20 01:14:38;;;;;;;7.55;3.65;;;;;;;16.11;44.60;101236.28;5354054;32;37878;-76
2022/05/20 01:17:41;;;;;;;9.50;3.70;;;;;;;15.99;44.99;101224.50;5391561;32;46619;-77
2022/05/20 01:20:46;;;;;;;9.55;3.37;;;;;;;15.95;44.94;101231.72;5375522;32;34523;-78
2022/05/20 01:23:49;;;;;;;10.35;3.40;;;;;;;16.89;43.12;101232.41;5383574;32;34963;-66
2022/05/20 01:26:51;;;;;;;12.52;3.33;;;;;;;16.90;43.04;101228.78;5379058;32;35178;-78
2022/05/20 01:29:53;;;;;;;7.03;3.40;;;;;;;16.59;43.28;101226.81;5369600;32;34127;-79
2022/05/20 01:32:55;;;;;;;7.83;3.70;;;;;;;15.88;44.47;101225.00;5395457;32;34692;-79
2022/05/20 01:35:59;;;;;;;11.65;4.43;;;;;;;15.94;43.82;101219.41;5381739;32;34677;-78
2022/05/20 01:39:01;;;;;;;14.75;8.23;;;;;;;15.78;44.25;101225.50;5396591;32;35440;-67
2022/05/20 01:42:12;;;;;;;10.07;3.20;;;;;;;15.85;44.87;101227.81;5377177;32;35173;-67
2022/05/20 01:45:18;;;;;;;8.40;3.92;;;;;;;16.53;43.14;101222.69;5384444;32;44766;-66
2022/05/20 01:48:32;;;;;;;11.90;5.03;;;;;;;16.66;42.83;101214.94;5383599;32;34911;-67
2022/05/20 01:51:53;;;;;;;16.75;8.77;;;;;;;16.52;42.95;101202.41;5378085;32;34327;-73
2022/05/20 01:55:16;;;;;;;10.20;3.80;;;;;;;16.68;42.92;101213.06;5397933;32;34863;-78
2022/05/20 01:58:19;;;;;;;19.10;3.90;;;;;;;15.72;45.39;101204.62;5370780;32;44894;-68
2022/05/20 02:01:25;;;;;;;13.57;3.72;;;;;;;15.84;45.17;101196.94;5379281;32;35465;-73
2022/05/20 02:04:32;;;;;;;8.50;3.70;;;;;;;15.95;44.87;101196.41;5391632;32;34304;-66
2022/05/20 02:07:38;;;;;;;9.33;4.13;;;;;;;15.60;45.29;101187.47;5377793;32;35171;-68
2022/05/20 02:10:46;;;;;;;8.30;3.50;;;;;;;16.04;44.07;101180.06;5375616;32;34858;-79
2022/05/20 02:13:55;;;;;;;9.47;4.63;;;;;;;16.78;42.85;101186.00;5359940;32;44498;-74
2022/05/20 02:17:06;;;;;;;10.37;4.00;;;;;;;16.52;42.80;101186.47;5381037;32;34654;-79
2022/05/20 02:20:21;;;;;;;10.23;4.18;;;;;;;16.14;44.04;101185.75;5372938;32;36830;-78
2022/05/20 02:23:28;;;;;;;9.90;3.63;;;;;;;16.15;43.38;101193.63;5376665;32;33842;-78
2022/05/20 02:26:33;;;;;;;7.77;3.57;;;;;;;16.03;42.54;101188.91;5387635;32;34615;-77
2022/05/20 02:29:56;;;;;;;10.10;3.30;;;;;;;16.06;41.88;101195.87;5367189;32;34981;-68
2022/05/20 02:33:14;;;;;;;7.93;3.37;;;;;;;16.78;40.13;101191.31;5382977;32;37452;-74
2022/05/20 02:36:25;;;;;;;9.77;3.50;;;;;;;16.13;41.47;101181.38;5390674;32;44654;-78
2022/05/20 02:39:27;;;;;;;10.03;4.10;;;;;;;16.99;39.69;101184.00;5376318;32;34941;-67
2022/05/20 02:42:29;;;;;;;8.80;3.92;;;;;;;16.81;39.96;101187.66;5393073;32;35349;-66
2022/05/20 02:45:33;;;;;;;9.13;3.45;;;;;;;17.04;39.67;101183.78;5380733;32;34823;-68
2022/05/20 02:48:36;;;;;;;11.20;4.15;;;;;;;16.90;40.21;101175.69;5391201;32;34980;-67
2022/05/20 02:51:38;;;;;;;;;;;;;;;16.53;41.27;101174.91;5383290;32;34353;-68
2022/05/20 02:54:40;;;;;;;10.38;3.50;;;;;;;17.49;39.00;101169.78;5381619;32;35459;-78
2022/05/20 02:57:44;;;;;;;11.50;3.90;;;;;;;17.03;39.92;101167.00;5381059;32;47123;-67
2022/05/20 03:04:10;;;;;;;12.93;3.70;;;;;;;17.78;37.98;101165.53;5380749;32;34763;-66
2022/05/20 03:07:13;;;;;;;12.27;3.80;;;;;;;17.50;38.21;101163.53;5374079;32;44594;-66
2022/05/20 03:10:15;;;;;;;12.07;4.15;;;;;;;17.68;38.02;101164.31;5372400;32;34533;-75
2022/05/20 03:13:18;;;;;;;11.63;4.43;;;;;;;16.86;39.61;101163.50;5370799;32;35415;-77
2022/05/20 03:16:20;;;;;;;9.43;3.67;;;;;;;16.86;39.93;101168.81;5373232;32;34766;-67
2022/05/20 03:19:22;;;;;;;8.40;3.83;;;;;;;16.63;40.42;101181.47;5390701;32;35823;-66
2022/05/20 03:22:25;;;;;;;9.18;3.67;;;;;;;16.08;41.79;101178.94;5368247;32;35140;-66
2022/05/20 03:25:27;;;;;;;11.73;3.50;;;;;;;16.85;39.58;101173.28;5392549;32;34574;-68
2022/05/20 03:28:29;;;;;;;13.23;3.65;;;;;;;17.24;38.56;101170.28;5377059;32;34741;-66
2022/05/20 03:31:36;;;;;;;10.13;4.10;;;;;;;17.06;38.03;101165.97;5380001;32;35694;-74
2022/05/20 03:34:39;;;;;;;8.33;3.13;;;;;;;16.79;38.81;101176.25;5383627;32;35369;-73
2022/05/20 03:37:41;;;;;;;7.72;3.00;;;;;;;17.39;37.04;101178.34;5378335;32;46964;-77
2022/05/20 03:40:43;;;;;;;7.93;3.60;;;;;;;17.58;36.16;101168.41;5395310;32;34915;-78
2022/05/20 03:43:46;;;;;;;12.00;4.07;;;;;;;17.28;36.91;101170.97;5368343;32;36128;-66
2022/05/20 03:46:51;;;;;;;10.05;3.25;;;;;;;17.15;37.24;101168.13;5388772;32;34223;-66
2022/05/20 03:49:53;;;;;;;8.65;3.28;;;;;;;16.32;39.14;101168.06;5380870;32;35940;-67
2022/05/20 03:52:55;;;;;;;10.57;3.90;;;;;;;16.28;39.94;101172.66;5379409;32;34403;-78
2022/05/20 03:55:58;;;;;;;6.87;3.60;;;;;;;17.28;38.04;101166.53;5395899;32;34921;-77
2022/05/20 03:59:00;;;;;;;9.80;3.62;;;;;;;16.85;38.63;101165.31;5380123;32;37042;-66
2022/05/20 04:02:05;;;;;;;10.07;4.00;;;;;;;16.85;38.90;101164.47;5391530;32;34784;-67
2022/05/20 04:05:08;;;;;;;9.03;3.90;;;;;;;17.54;37.50;101158.91;5370481;32;35255;-66
2022/05/20 04:08:10;;;;;;;10.90;4.03;;;;;;;17.50;37.47;101166.19;5390449;32;34657;-80
2022/05/20 04:11:13;;;;;;;9.75;4.03;;;;;;;17.87;37.03;101159.69;5382741;32;47718;-76
2022/05/20 04:14:15;;;;;;;;;;;;;;;17.85;37.10;101164.25;5359599;32;34715;-71
2022/05/20 04:17:17;;;;;;;9.13;4.35;;;;;;;17.63;37.55;101166.38;5381555;32;35838;-79
2022/05/20 04:20:19;;;;;;;10.83;3.60;;;;;;;17.14;38.63;101169.09;5374980;32;34803;-73
2022/05/20 04:23:21;;;;;;;9.97;4.20;;;;;;;17.06;38.55;101166.81;5388213;32;35013;-73
2022/05/20 04:26:23;;;;;;;11.17;4.23;;;;;;;17.83;36.80;101166.13;5372761;32;34909;-67
2022/05/20 04:29:26;;;;;;;13.32;4.15;;;;;;;18.18;36.13;101157.06;5384063;32;34574;-79
2022/05/20 04:32:28;;;;;;;10.07;4.43;;;;;;;18.46;35.57;101158.94;5384493;32;34276;-78
2022/05/20 04:35:30;;;;;;;10.43;4.45;;;;;;;18.76;35.17;101164.28;5378732;32;35556;-72
2022/05/20 04:38:32;;;;;;;7.87;4.00;;;;;;;19.65;33.14;101154.25;5394468;32;34113;-77
2022/05/20 04:48:17;;;;;;;10.65;4.15;;;;;;;18.97;34.55;101170.94;5376453;32;44737;-68
2022/05/20 04:51:19;;;;;;;12.68;5.12;;;;;;;19.01;34.84;101169.81;5388499;32;34136;-75
2022/05/20 04:57:47;;;;;;;11.80;4.65;;;;;;;19.78;33.52;101160.50;5372063;32;44567;-78
2022/05/20 05:00:49;;;;;;;14.90;4.90;;;;;;;19.66;34.00;101147.94;5395124;32;34790;-68
2022/05/20 05:03:51;;;;;;;10.50;3.15;;;;;;;19.66;34.10;101155.94;5369594;32;33801;-80
2022/05/20 05:06:53;;;;;;;10.13;4.22;;;;;;;20.05;35.85;101152.47;5374852;32;34667;-71
2022/05/20 05:09:55;;;;;;;15.98;5.22;;;;;;;19.74;35.73;101148.31;5368265;32;34853;-70
2022/05/20 05:12:57;;;;;;;13.25;4.87;;;;;;;19.31;35.08;101163.50;5347697;32;35294;-70
2022/05/20 05:16:05;;;;;;;18.85;6.60;;;;;;;19.88;34.31;101166.91;5391141;32;34656;-72
2022/05/20 05:19:08;;;;;;;17.92;5.75;;;;;;;20.42;33.15;101177.56;5370674;32;34297;-72
2022/05/20 05:22:11;;;;;;;13.05;5.35;;;;;;;20.22;33.58;101180.69;5382548;32;34763;-73
2022/05/20 05:25:13;;;;;;;;;;;;;;;20.44;33.55;101164.94;5355232;32;46884;-69
2022/05/20 05:28:16;;;;;;;11.60;4.80;;;;;;;21.85;30.97;101173.72;5375910;32;34919;-76
2022/05/20 05:31:18;;;;;;;14.57;5.43;;;;;;;22.29;30.34;101158.87;5395150;32;34141;-74
2022/05/20 05:34:20;;;;;;;11.38;5.30;;;;;;;21.15;32.27;101147.56;5378163;32;34289;-80
2022/05/20 05:37:23;;;;;;;17.20;5.75;;;;;;;22.74;29.69;101162.50;5386012;32;34365;-82
2022/05/20 05:40:28;;;;;;;16.17;5.55;;;;;;;21.10;32.96;101158.56;5377176;32;35243;-67
2022/05/20 05:43:30;;;;;;;14.85;5.57;;;;;;;22.14;30.95;101155.50;5380252;32;34519;-78
2022/05/20 05:46:32;;;;;;;15.80;5.55;;;;;;;22.68;30.03;101137.03;5373563;32;36073;-69
2022/05/20 05:49:35;;;;;;;12.75;5.40;;;;;;;24.08;27.75;101137.34;5371732;32;34749;-75
2022/05/20 05:52:37;;;;;;;12.45;5.32;;;;;;;21.69;31.20;101155.25;5385529;32;34297;-69
2022/05/20 05:55:40;;;;;;;16.85;5.90;;;;;;;23.76;27.94;101146.28;5358454;32;36043;-71
2022/05/20 05:58:42;;;;;;;9.85;4.65;;;;;;;25.08;26.19;101146.69;5376150;32;44594;-75
2022/05/20 06:01:45;;;;;;;14.00;5.28;;;;;;;24.25;27.53;101134.09;5358887;32;35302;-73
2022/05/20 06:04:48;;;;;;;13.98;5.15;;;;;;;24.68;27.04;101140.38;5370925;32;34379;-72
2022/05/20 06:07:51;;;;;;;11.60;5.80;;;;;;;24.13;27.23;101139.66;5368719;32;36240;-74
2022/05/20 06:10:53;;;;;;;11.35;5.00;;;;;;;24.32;27.58;101143.34;5365876;32;34172;-66
2022/05/20 06:13:56;;;;;;;;;;;;;;;25.35;24.87;101140.69;5353476;32;34568;-73
2022/05/20 06:16:58;;;;;;;22.67;5.75;;;;;;;25.05;25.45;101138.91;5369217;32;35318;-74
2022/05/20 06:20:01;;;;;;;18.85;5.12;;;;;;;24.99;25.50;101136.72;5387854;32;34939;-84
2022/05/20 06:23:03;;;;;;;11.70;4.72;;;;;;;23.90;27.88;101150.50;5363340;32;35119;-75
2022/05/20 06:26:06;;;;;;;19.10;5.15;;;;;;;25.44;25.24;101140.84;5389041;32;34523;-70
2022/05/20 06:29:23;;;;;;;12.27;4.32;;;;;;;23.68;28.07;101129.94;5384058;32;34414;-70
2022/05/20 06:32:25;;;;;;;11.73;4.20;;;;;;;25.90;24.23;101124.94;5371460;32;35783;-83
2022/05/20 06:42:11;;;;;;;10.43;4.37;;;;;;;28.18;21.04;101108.22;5369808;32;43888;-68
2022/05/20 06:45:14;;;;;;;8.27;3.53;;;;;;;27.07;22.14;101113.97;5379449;32;34659;-73
2022/05/20 06:48:16;;;;;;;10.35;3.70;;;;;;;28.67;19.50;101114.00;5372100;32;34773;-71
2022/05/20 06:51:25;;;;;;;9.50;2.95;;;;;;;26.80;20.98;101110.22;5371458;32;33982;-71
2022/05/20 06:54:27;;;;;;;7.53;3.40;;;;;;;27.12;20.23;101117.94;5352710;32;32983;-72
2022/05/20 06:57:30;;;;;;;10.18;3.30;;;;;;;25.07;22.73;101133.38;5354282;32;34532;-69
2022/05/20 07:00:33;;;;;;;7.90;3.05;;;;;;;24.40;24.41;101136.50;5363996;32;34327;-69
2022/05/20 07:03:35;;;;;;;6.97;3.60;;;;;;;23.61;25.49;101134.09;5340766;32;35728;-71
2022/05/20 07:06:38;;;;;;;10.85;3.67;;;;;;;23.37;25.99;101146.81;5375865;32;34055;-75
2022/05/20 07:09:40;;;;;;;;;;;;;;;23.18;26.64;101134.87;5364536;32;44482;-68
2022/05/20 07:12:42;;;;;;;8.98;3.87;;;;;;;23.00;26.66;101130.16;5363520;32;35715;-72
2022/05/20 07:15:45;;;;;;;9.68;3.58;;;;;;;22.73;27.23;101130.44;5369315;32;35514;-72
2022/05/20 07:18:47;;;;;;;11.57;4.12;;;;;;;23.29;26.73;101138.53;5378433;32;35880;-72
2022/05/20 07:21:49;;;;;;;6.60;2.92;;;;;;;22.88;27.17;101140.88;5371559;32;35285;-72
2022/05/20 07:24:52;;;;;;;7.53;3.50;;;;;;;23.67;26.31;101127.38;5370375;32;33958;-69
2022/05/20 07:27:59;;;;;;;15.00;4.22;;;;;;;24.33;25.72;101141.50;5386055;32;34166;-69
2022/05/20 07:31:02;;;;;;;12.52;3.58;;;;;;;24.04;26.20;101146.66;5362180;32;34355;-74
2022/05/20 07:34:05;;;;;;;9.48;3.83;;;;;;;25.32;24.74;101146.34;5383217;32;34543;-70
2022/05/20 07:37:07;;;;;;;13.77;3.72;;;;;;;26.94;22.64;101122.38;5371556;32;35884;-71
2022/05/20 07:40:10;;;;;;;7.43;3.60;;;;;;;26.91;22.69;101139.69;5385466;32;34147;-69
2022/05/20 07:43:13;;;;;;;6.60;3.10;;;;;;;26.57;23.24;101139.38;5372381;32;47149;-72
2022/05/20 07:46:15;;;;;;;12.52;3.30;;;;;;;28.18;21.37;101129.00;5367475;32;34355;-81
2022/05/20 07:49:17;;;;;;;13.23;3.92;;;;;;;27.02;22.50;101140.50;5390326;32;33475;-81
2022/05/20 07:55:44;;;;;;;10.10;3.12;;;;;;;27.46;22.46;101136.19;5386606;32;32765;-81
2022/05/20 07:58:50;;;;;;;10.32;3.67;;;;;;;28.42;21.09;101134.63;5385212;32;35178;-82
2022/05/20 08:01:53;;;;;;;8.20;3.60;;;;;;;30.68;18.74;101129.25;5380221;32;34167;-91
2022/05/20 08:04:58;;;;;;;14.50;3.50;;;;;;;32.13;17.25;101125.13;5397848;32;33839;-81
2022/05/20 08:08:03;;;;;;;10.70;3.40;;;;;;;30.96;18.09;101121.50;5381209;32;34253;-71
2022/05/20 08:11:05;;;;;;;7.20;3.28;;;;;;;29.61;19.66;101116.62;5359868;32;35374;-83
2022/05/20 08:14:07;;;;;;;11.10;3.30;;;;;;;28.53;20.91;101117.28;5355218;32;35654;-73
2022/05/20 08:17:09;;;;;;;5.90;2.67;;;;;;;28.25;21.38;101111.16;5369164;32;34072;-72
2022/05/20 08:20:17;;;;;;;8.27;3.30;;;;;;;28.90;20.53;101111.59;5378615;32;44667;-69
2022/05/20 08:23:19;;;;;;;7.32;3.47;;;;;;;30.42;19.01;101112.31;5356830;32;36741;-78
2022/05/20 08:26:24;;;;;;;11.27;3.47;;;;;;;30.71;18.62;101109.88;5382789;32;33060;-68
2022/05/20 08:29:26;;;;;;;10.65;3.28;;;;;;;32.22;17.15;101098.72;5355034;32;34268;-73
2022/05/20 08:32:28;;;;;;;10.00;3.28;;;;;;;29.56;20.01;101113.59;5379618;32;35383;-72
2022/05/20 08:35:30;;;;;;;6.30;3.55;;;;;;;31.96;17.24;101105.41;5373830;32;36116;-75
2022/05/20 08:38:33;;;;;;;6.40;3.00;;;;;;;32.85;16.38;101090.06;5372618;32;34109;-77
2022/05/20 08:41:38;;;;;;;8.38;3.30;;;;;;;31.60;17.50;101094.22;5383193;32;35378;-70
2022/05/20 08:44:42;;;;;;;7.47;2.78;;;;;;;30.81;18.27;101084.44;5379752;32;43719;-73
2022/05/20 08:47:47;;;;;;;8.38;2.78;;;;;;;32.99;16.31;101076.66;5388247;32;36659;-70
2022/05/20 08:50:51;;;;;;;11.20;2.80;;;;;;;31.97;17.23;101079.06;5373562;32;34072;-78
2022/05/20 08:53:57;;;;;;;6.05;2.87;;;;;;;30.93;18.32;101077.63;5376969;32;34021;-83
2022/05/20 08:57:33;;;;;;;7.47;2.97;;;;;;;31.77;17.82;101068.66;5370111;32;35303;-80
2022/05/20 09:00:36;;;;;;;6.95;3.00;;;;;;;31.86;17.40;101065.88;5370098;32;35582;-71
2022/05/20 09:03:38;;;;;;;5.93;3.00;;;;;;;32.91;16.51;101053.09;5386607;32;31990;-76
2022/05/20 09:06:58;;;;;;;8.15;3.00;;;;;;;34.46;14.93;101053.44;5367861;32;44372;-70
2022/05/20 09:10:00;;;;;;;6.03;2.95;;;;;;;32.48;16.89;101044.75;5387933;32;35433;-73
2022/05/20 09:13:06;;;;;;;8.73;2.85;;;;;;;35.01;14.64;101035.25;5357581;32;34131;-70
2022/05/20 09:16:21;;;;;;;6.50;2.97;;;;;;;33.11;16.13;101028.84;5375215;32;45842;-70
2022/05/20 09:19:27;;;;;;;9.10;2.85;;;;;;;32.46;16.93;101038.66;5380404;32;34198;-67
2022/05/20 09:22:36;;;;;;;6.03;3.20;;;;;;;33.44;15.98;101025.69;5373632;32;34368;-72
2022/05/20 09:25:46;;;;;;;8.43;3.28;;;;;;;31.26;18.15;101033.00;5371899;32;35664;-68
2022/05/20 09:28:57;;;;;;;7.40;3.05;;;;;;;29.16;20.54;101032.22;5373441;32;46137;-68
2022/05/20 09:32:03;;;;;;;5.37;3.00;;;;;;;29.29;20.71;101036.16;5350158;32;33975;-67
2022/05/20 09:35:18;;;;;;;10.68;3.17;;;;;;;33.17;16.58;101017.19;5377426;32;34713;-68
2022/05/20 09:38:31;;;;;;;4.90;2.55;;;;;;;31.32;18.30;101017.88;5366344;32;44179;-70
2022/05/20 09:41:43;;;;;;;5.20;2.85;;;;;;;32.10;17.66;101003.16;5377616;32;36265;-73
2022/05/20 09:44:50;;;;;;;5.10;2.75;;;;;;;32.42;17.16;101007.41;5366035;32;44359;-73
2022/05/20 09:47:56;;;;;;;7.05;2.95;;;;;;;31.62;17.88;100998.97;5364968;32;34546;-66
2022/05/20 09:51:05;;;;;;;8.02;3.20;;;;;;;30.14;19.64;101014.22;5371370;32;34213;-71
2022/05/20 09:54:34;;;;;;;6.25;2.85;;;;;;;31.16;18.79;101009.78;5374255;32;35873;-72
2022/05/20 09:57:40;;;;;;;6.37;3.33;;;;;;;31.76;17.94;101001.75;5392772;32;33192;-70
2022/05/20 10:00:46;;;;;;;11.02;3.70;;;;;;;30.66;19.35;100998.31;5371855;32;44486;-69
2022/05/20 10:03:57;;;;;;;7.68;2.72;;;;;;;32.15;17.97;101003.44;5361835;32;34206;-67
2022/05/20 10:07:00;;;;;;;7.72;3.45;;;;;;;32.71;17.12;100998.38;5380322;32;34983;-72
2022/05/20 10:10:09;;;;;;;6.30;3.22;;;;;;;32.88;17.10;100990.88;5375394;32;34961;-68
2022/05/20 10:13:35;;;;;;;6.50;3.05;;;;;;;34.21;15.82;100990.28;5358687;32;44505;-72
2022/05/20 10:16:58;;;;;;;10.30;3.37;;;;;;;34.49;15.89;100995.72;5367148;32;34176;-72
2022/05/20 10:20:08;;;;;;;5.65;2.80;;;;;;;33.62;16.45;100983.31;5370331;32;33657;-71
2022/05/20 10:23:58;;;;;;;9.30;3.95;;;;;;;35.83;14.37;100979.47;5380188;32;33937;-70
2022/05/20 10:27:23;;;;;;;7.28;2.90;;;;;;;32.66;17.64;100984.50;5340790;32;34107;-66
2022/05/20 10:33:51;;;;;;;5.87;2.47;;;;;;;35.31;15.14;100975.66;5382782;32;34127;-65
2022/05/20 10:37:20;;;;;;;5.95;2.20;;;;;;;35.02;15.24;100982.28;5367729;32;34113;-75
2022/05/20 10:40:57;;;;;;;7.75;2.87;;;;;;;35.34;15.05;100974.38;5375536;32;36034;-74
2022/05/20 10:51:17;;;;;;;8.52;2.72;;;;;;;33.03;17.57;100966.31;5381074;32;34380;-77
2022/05/20 10:54:45;;;;;;;6.03;2.80;;;;;;;37.14;13.94;100955.47;5388102;32;44542;-75
2022/05/20 10:58:22;;;;;;;9.07;2.60;;;;;;;37.03;13.84;100956.19;5360936;32;45516;-71
2022/05/20 11:01:39;;;;;;;5.90;2.58;;;;;;;34.80;16.06;100942.50;5384579;32;35396;-71
2022/05/20 11:05:07;;;;;;;6.57;2.30;;;;;;;37.04;13.89;100938.72;5377347;32;44343;-70
2022/05/20 11:08:20;;;;;;;7.82;2.72;;;;;;;36.67;14.62;100937.63;5376166;32;34281;-70
2022/05/20 11:11:50;;;;;;;5.37;2.37;;;;;;;39.45;12.47;100932.00;5384132;32;35700;-66
2022/05/20 11:14:59;;;;;;;5.07;2.30;;;;;;;36.26;14.88;100927.00;5354244;32;33040;-72
2022/05/20 11:18:19;;;;;;;7.43;2.20;;;;;;;38.67;12.99;100919.19;5364440;32;35587;-76
2022/05/20 11:21:41;;;;;;;9.23;3.40;;;;;;;41.29;11.22;100911.13;5369082;32;34052;-76
2022/05/20 11:24:49;;;;;;;10.90;2.70;;;;;;;39.18;12.83;100909.62;5364499;32;44549;-79
2022/05/20 11:28:04;;;;;;;5.72;2.35;;;;;;;34.76;16.60;100922.94;5382476;32;35786;-86
2022/05/20 11:31:12;;;;;;;5.57;2.50;;;;;;;38.02;13.79;100920.84;5378905;32;35605;-73
2022/05/20 11:34:23;;;;;;;7.60;2.90;;;;;;;38.90;12.97;100912.13;5357154;32;44954;-75
2022/05/20 11:37:47;;;;;;;6.50;2.70;;;;;;;37.28;14.19;100919.75;5385781;32;34612;-76
2022/05/20 11:41:08;;;;;;;7.37;2.62;;;;;;;37.57;14.10;100882.66;5372541;32;45046;-78
2022/05/20 11:44:32;;;;;;;7.47;2.45;;;;;;;36.00;15.68;100885.03;5379242;32;45613;-76
2022/05/20 11:48:12;;;;;;;9.73;3.00;;;;;;;38.88;13.15;100884.91;5387869;32;37062;-76
2022/05/20 11:51:37;;;;;;;7.60;2.55;;;;;;;36.79;14.63;100885.75;5373681;32;33951;-76
2022/05/20 11:54:55;;;;;;;7.15;2.22;;;;;;;38.89;13.18;100872.00;5383984;32;34580;-75
2022/05/20 11:58:03;;;;;;;5.30;2.80;;;;;;;39.58;12.32;100869.59;5391840;32;35199;-78
2022/05/20 12:01:06;;;;;;;6.12;2.30;;;;;;;38.29;13.66;100867.31;5381498;32;37007;-77
2022/05/20 12:04:09;;;;;;;6.87;2.75;;;;;;;40.30;12.25;100861.84;5382307;32;35060;-75
2022/05/20 12:07:16;;;;;;;9.35;2.78;;;;;;;39.21;12.78;100861.56;5374731;32;45239;-75
2022/05/20 12:10:30;;;;;;;7.12;2.37;;;;;;;39.62;12.68;100859.84;5393539;32;36087;-74
2022/05/20 12:13:58;;;;;;;6.10;2.67;;;;;;;40.21;12.26;100852.31;5367274;32;35148;-76
2022/05/20 12:17:03;;;;;;;8.68;2.50;;;;;;;38.48;13.76;100855.25;5369335;32;34933;-77
2022/05/20 12:24:12;;;;;;;6.72;2.90;;;;;;;35.84;16.21;100858.09;5370146;32;34726;-74
2022/05/20 12:27:20;;;;;;;6.20;2.78;;;;;;;34.56;17.52;100851.09;5371105;32;44338;-77
2022/05/20 12:30:35;;;;;;;6.53;2.95;;;;;;;34.18;17.88;100844.22;5397326;32;34096;-76
2022/05/20 12:34:10;;;;;;;4.82;2.62;;;;;;;31.76;20.58;100846.84;5380714;32;34632;-74
2022/05/20 12:37:41;;;;;;;7.70;2.92;;;;;;;33.00;19.34;100845.03;5361975;32;34562;-74
2022/05/20 12:40:44;;;;;;;5.55;2.60;;;;;;;31.61;21.08;100834.25;5342123;32;44564;-76
2022/05/20 12:43:53;;;;;;;12.88;3.30;;;;;;;33.02;19.60;100828.50;5380680;32;36006;-76
2022/05/20 12:47:04;;;;;;;8.45;2.95;;;;;;;33.18;19.30;100824.69;5393042;32;34471;-76
2022/05/20 12:50:17;;;;;;;5.28;2.78;;;;;;;32.75;19.80;100819.22;5379264;32;44424;-78
2022/05/20 12:53:19;;;;;;;7.85;3.30;;;;;;;32.49;20.14;100819.78;5378061;32;34708;-76
2022/05/20 12:56:28;;;;;;;10.77;3.60;;;;;;;31.86;21.21;100816.69;5391148;32;36166;-75
2022/05/20 12:59:30;;;;;;;10.07;3.42;;;;;;;32.45;20.40;100811.16;5376660;32;36041;-74
2022/05/20 13:02:34;;;;;;;10.57;3.42;;;;;;;30.92;22.24;100816.22;5387142;32;36099;-78
2022/05/20 13:05:39;;;;;;;15.82;3.75;;;;;;;31.86;21.78;100807.69;5367605;32;35575;-75
2022/05/20 13:08:57;;;;;;;9.00;3.00;;;;;;;32.96;20.43;100802.91;5378123;32;44613;-76
2022/05/20 13:12:07;;;;;;;5.25;2.55;;;;;;;32.54;20.87;100806.47;5371326;32;34968;-73
2022/05/20 13:15:11;;;;;;;10.80;2.80;;;;;;;32.86;20.09;100800.53;5381320;32;35407;-75
2022/05/20 13:18:28;;;;;;;6.43;2.95;;;;;;;31.91;21.37;100803.37;5393487;32;44486;-74
2022/05/20 13:21:47;;;;;;;5.85;2.47;;;;;;;32.22;21.43;100797.69;5369838;32;34810;-74
2022/05/20 13:25:08;;;;;;;5.62;2.80;;;;;;;31.00;22.49;100802.59;5378783;32;43278;-75
2022/05/20 13:28:11;;;;;;;10.35;2.92;;;;;;;32.01;21.67;100797.62;5392806;32;44482;-76
2022/05/20 13:31:20;;;;;;;8.43;2.85;;;;;;;31.41;22.22;100785.06;5379983;32;34361;-73
2022/05/20 13:34:22;;;;;;;7.35;2.72;;;;;;;32.49;21.13;100777.09;5394536;32;36157;-74
2022/05/20 13:37:30;;;;;;;4.10;2.50;;;;;;;31.95;21.75;100782.09;5368533;32;36927;-75
2022/05/20 13:40:41;;;;;;;6.35;2.87;;;;;;;31.14;22.66;100773.78;5377044;32;36141;-73
2022/05/20 13:43:43;;;;;;;5.37;2.70;;;;;;;32.70;21.08;100772.69;5382703;32;45385;-73
2022/05/20 13:50:11;;;;;;;6.65;2.50;;;;;;;31.50;22.41;100757.66;5396291;32;44342;-76
2022/05/20 13:53:13;;;;;;;6.68;2.87;;;;;;;31.54;22.76;100758.09;5381096;32;34578;-77
2022/05/20 13:56:16;;;;;;;6.75;2.87;;;;;;;31.94;22.09;100759.50;5395406;32;34958;-75
2022/05/20 13:59:27;;;;;;;7.30;2.95;;;;;;;30.31;23.90;100747.47;5381042;32;34716;-79
2022/05/20 14:02:36;;;;;;;5.00;2.40;;;;;;;31.22;23.25;100742.97;5365845;32;37638;-77
2022/05/20 14:05:45;;;;;;;6.18;2.80;;;;;;;32.45;21.66;100745.03;5384948;32;34571;-77
2022/05/20 14:08:54;;;;;;;12.07;3.22;;;;;;;32.44;21.85;100746.06;5379196;32;44533;-75
2022/05/20 14:11:56;;;;;;;8.13;2.83;;;;;;;32.32;21.96;100741.09;5375776;32;35262;-78
2022/05/20 14:15:02;;;;;;;7.57;2.47;;;;;;;31.38;22.84;100734.72;5361158;32;35380;-76
2022/05/20 14:18:06;;;;;;;7.93;3.42;;;;;;;32.32;22.02;100730.22;5362993;32;34144;-74
2022/05/20 14:21:29;;;;;;;10.00;4.50;;;;;;;32.66;21.50;100725.16;5384214;32;44673;-75
2022/05/20 14:24:34;;;;;;;6.03;2.62;;;;;;;32.84;21.45;100715.44;5372037;32;34297;-76
2022/05/20 14:27:39;;;;;;;8.30;2.58;;;;;;;32.78;21.42;100708.09;5383719;32;34743;-76
2022/05/20 14:30:45;;;;;;;10.55;3.40;;;;;;;32.72;21.65;100708.88;5369886;32;44443;-74
2022/05/20 14:33:52;;;;;;;5.78;3.15;;;;;;;31.42;23.29;100705.28;5375264;32;34649;-75
2022/05/20 14:36:57;;;;;;;5.97;2.50;;;;;;;32.57;22.02;100708.13;5389949;32;34721;-73
2022/05/20 14:40:08;;;;;;;5.22;2.42;;;;;;;31.49;23.30;100711.66;5382006;32;34697;-75
2022/05/20 14:43:31;;;;;;;7.87;4.53;;;;;;;32.14;22.52;100707.22;5385684;32;44376;-74
2022/05/20 14:50:05;;;;;;;8.88;2.53;;;;;;;32.37;22.32;100688.06;5370730;32;34881;-76
2022/05/20 14:53:23;;;;;;;8.57;2.58;;;;;;;32.27;22.81;100699.25;5396573;32;34846;-74
2022/05/20 14:56:36;;;;;;;6.18;2.90;;;;;;;32.36;22.41;100689.94;5374968;32;34192;-76
2022/05/20 14:59:39;;;;;;;6.70;2.92;;;;;;;32.68;22.16;100672.22;5392371;32;34518;-74
2022/05/20 15:02:41;;;;;;;8.57;2.60;;;;;;;31.57;23.62;100683.56;5375532;32;43998;-76
2022/05/20 15:05:43;;;;;;;6.30;2.40;;;;;;;31.60;23.72;100675.00;5363458;32;35397;-75
2022/05/20 15:08:47;;;;;;;9.05;2.65;;;;;;;31.83;23.64;100691.22;5394399;32;36056;-74
2022/05/20 15:11:51;;;;;;;7.28;2.95;;;;;;;30.86;24.89;100683.16;5364445;32;34453;-73
2022/05/20 15:14:54;;;;;;;6.07;2.67;;;;;;;31.51;24.33;100690.59;5384591;32;34850;-75
2022/05/20 15:18:05;;;;;;;5.80;2.42;;;;;;;31.24;24.74;100681.25;5371508;32;34762;-76